| Date | Time | Temp. (oF) | Dew Point (oF) | Rel. Hum. (%) | Press. (in.) | Wind Dir. | Wind Speed (mph) | Hourly Rainfall (in.) |
|
|---|---|---|---|---|---|---|---|---|---|
| 1 | 11/13 | 00:00 | 38 | 37 | 98 | 30.21 | N | 2 | 0.00 |
| 2 | 11/12 | 23:00 | 38 | 36 | 96 | 30.24 | WNW | 3 | 0.07 |
| 3 | 11/12 | 22:00 | 38 | 36 | 93 | 30.26 | NE | 2 | 0.07 |
| 4 | 11/12 | 21:00 | 38 | 34 | 88 | 30.28 | NE | 2 | 0.05 |
| 5 | 11/12 | 20:00 | 40 | 32 | 75 | 30.29 | ENE | 2 | 0.00 |
| 6 | 11/12 | 19:00 | 41 | 30 | 67 | 30.30 | E | 4 | 0.00 |
| 7 | 11/12 | 18:00 | 41 | 29 | 64 | 30.31 | SE | 3 | 0.00 |
| 8 | 11/12 | 17:00 | 41 | 28 | 60 | 30.31 | SSE | 1 | 0.00 |
| 9 | 11/12 | 16:00 | 43 | 30 | 60 | 30.32 | ESE | 3 | 0.00 |
| 10 | 11/12 | 15:00 | 44 | 30 | 60 | 30.30 | SSE | 4 | 0.00 |
| 11 | 11/12 | 14:00 | 45 | 30 | 56 | 30.30 | SSE | 11 | 0.00 |
| 12 | 11/12 | 13:00 | 47 | 32 | 56 | 30.32 | SSE | 10 | 0.00 |
| 13 | 11/12 | 12:00 | 44 | 32 | 65 | 30.34 | SE | 6 | 0.00 |
| 14 | 11/12 | 11:00 | 41 | 33 | 74 | 30.38 | S | 4 | 0.00 |
| 15 | 11/12 | 10:00 | 37 | 32 | 84 | 30.41 | S | 4 | 0.00 |
| 16 | 11/12 | 09:00 | 34 | 32 | 94 | 30.40 | ESE | 2 | 0.00 |
| 17 | 11/12 | 08:00 | 30 | 29 | 97 | 30.40 | N | 1 | 0.00 |
| 18 | 11/12 | 07:00 | 28 | 27 | 97 | 30.38 | E | 2 | 0.00 |
| 19 | 11/12 | 06:00 | 27 | 26 | 98 | 30.39 | N | 0 | 0.00 |
| 20 | 11/12 | 05:00 | 26 | 25 | 98 | 30.39 | N | 0 | 0.00 |
| 21 | 11/12 | 04:00 | 25 | 24 | 96 | 30.37 | N | 1 | 0.00 |
| 22 | 11/12 | 03:00 | 25 | 24 | 96 | 30.38 | N | 1 | 0.00 |
| 23 | 11/12 | 02:00 | 26 | 24 | 94 | 30.37 | N | 1 | 0.00 |
| 24 | 11/12 | 01:00 | 26 | 23 | 92 | 30.37 | SSE | 1 | 0.00 |